sensor_id;sensor_type;location;lat;lon;timestamp;P1;durP1;ratioP1;P2;durP2;ratioP2
10174;SDS011;18221;38.704;0.152;2023-09-08T00:13:18;5.73;;;3.90;;
10174;SDS011;18221;38.704;0.152;2023-09-08T00:15:47;4.40;;;4.00;;
10174;SDS011;18221;38.704;0.152;2023-09-08T00:18:15;4.30;;;3.33;;
10174;SDS011;18221;38.704;0.152;2023-09-08T00:20:43;5.53;;;4.37;;
10174;SDS011;18221;38.704;0.152;2023-09-08T00:23:11;5.10;;;4.60;;
10174;SDS011;18221;38.704;0.152;2023-09-08T00:25:39;4.23;;;3.83;;
10174;SDS011;18221;38.704;0.152;2023-09-08T00:28:07;4.70;;;3.97;;
10174;SDS011;18221;38.704;0.152;2023-09-08T00:30:36;5.13;;;3.40;;
10174;SDS011;18221;38.704;0.152;2023-09-08T00:33:04;6.10;;;3.73;;
10174;SDS011;18221;38.704;0.152;2023-09-08T00:35:34;4.70;;;3.83;;
10174;SDS011;18221;38.704;0.152;2023-09-08T00:38:02;4.63;;;4.03;;
10174;SDS011;18221;38.704;0.152;2023-09-08T00:40:30;4.57;;;3.70;;
10174;SDS011;18221;38.704;0.152;2023-09-08T00:42:59;7.10;;;4.03;;
10174;SDS011;18221;38.704;0.152;2023-09-08T00:45:27;5.10;;;3.87;;
10174;SDS011;18221;38.704;0.152;2023-09-08T00:47:58;5.47;;;3.70;;
10174;SDS011;18221;38.704;0.152;2023-09-08T00:50:27;5.20;;;3.70;;
10174;SDS011;18221;38.704;0.152;2023-09-08T00:52:55;4.63;;;3.93;;
10174;SDS011;18221;38.704;0.152;2023-09-08T00:55:24;4.83;;;3.80;;
10174;SDS011;18221;38.704;0.152;2023-09-08T00:57:52;4.63;;;3.80;;
10174;SDS011;18221;38.704;0.152;2023-09-08T01:00:21;5.17;;;4.30;;
10174;SDS011;18221;38.704;0.152;2023-09-08T01:02:49;4.73;;;3.57;;
10174;SDS011;18221;38.704;0.152;2023-09-08T01:05:18;4.50;;;4.10;;
10174;SDS011;18221;38.704;0.152;2023-09-08T01:07:47;5.13;;;4.00;;
10174;SDS011;18221;38.704;0.152;2023-09-08T01:10:17;6.17;;;3.97;;
10174;SDS011;18221;38.704;0.152;2023-09-08T01:12:45;4.13;;;3.73;;
10174;SDS011;18221;38.704;0.152;2023-09-08T01:15:13;5.70;;;3.97;;
10174;SDS011;18221;38.704;0.152;2023-09-08T01:17:42;5.37;;;4.40;;
10174;SDS011;18221;38.704;0.152;2023-09-08T01:20:12;5.63;;;4.50;;
10174;SDS011;18221;38.704;0.152;2023-09-08T01:25:50;5.53;;;4.30;;
10174;SDS011;18221;38.704;0.152;2023-09-08T01:28:23;6.60;;;4.17;;
10174;SDS011;18221;38.704;0.152;2023-09-08T01:30:53;5.67;;;4.70;;
10174;SDS011;18221;38.704;0.152;2023-09-08T01:33:23;5.83;;;4.30;;
10174;SDS011;18221;38.704;0.152;2023-09-08T01:35:52;5.70;;;4.00;;
10174;SDS011;18221;38.704;0.152;2023-09-08T01:38:21;5.63;;;4.30;;
10174;SDS011;18221;38.704;0.152;2023-09-08T01:40:52;6.30;;;4.10;;
10174;SDS011;18221;38.704;0.152;2023-09-08T01:43:20;6.27;;;3.80;;
10174;SDS011;18221;38.704;0.152;2023-09-08T01:45:48;6.60;;;4.30;;
10174;SDS011;18221;38.704;0.152;2023-09-08T01:48:16;4.90;;;4.13;;
10174;SDS011;18221;38.704;0.152;2023-09-08T01:50:44;5.03;;;4.37;;
10174;SDS011;18221;38.704;0.152;2023-09-08T01:53:13;5.40;;;4.53;;
10174;SDS011;18221;38.704;0.152;2023-09-08T01:55:43;4.97;;;4.47;;
10174;SDS011;18221;38.704;0.152;2023-09-08T01:58:13;5.57;;;4.30;;
10174;SDS011;18221;38.704;0.152;2023-09-08T02:00:41;5.00;;;3.90;;
10174;SDS011;18221;38.704;0.152;2023-09-08T02:03:09;5.80;;;4.37;;
10174;SDS011;18221;38.704;0.152;2023-09-08T02:05:38;5.73;;;4.07;;
10174;SDS011;18221;38.704;0.152;2023-09-08T02:08:07;5.13;;;4.60;;
10174;SDS011;18221;38.704;0.152;2023-09-08T02:10:35;5.87;;;4.47;;
10174;SDS011;18221;38.704;0.152;2023-09-08T02:13:06;5.23;;;4.40;;
10174;SDS011;18221;38.704;0.152;2023-09-08T02:15:36;4.27;;;3.87;;
10174;SDS011;18221;38.704;0.152;2023-09-08T02:18:05;5.13;;;3.90;;
10174;SDS011;18221;38.704;0.152;2023-09-08T02:20:34;5.90;;;4.37;;
10174;SDS011;18221;38.704;0.152;2023-09-08T02:23:03;5.90;;;4.10;;
10174;SDS011;18221;38.704;0.152;2023-09-08T02:25:33;4.53;;;4.13;;
10174;SDS011;18221;38.704;0.152;2023-09-08T02:28:01;6.70;;;4.37;;
10174;SDS011;18221;38.704;0.152;2023-09-08T02:30:29;5.53;;;4.67;;
10174;SDS011;18221;38.704;0.152;2023-09-08T02:32:59;4.70;;;4.30;;
10174;SDS011;18221;38.704;0.152;2023-09-08T02:35:36;5.80;;;4.33;;
10174;SDS011;18221;38.704;0.152;2023-09-08T02:38:07;4.90;;;4.40;;
10174;SDS011;18221;38.704;0.152;2023-09-08T02:40:38;5.83;;;4.60;;
10174;SDS011;18221;38.704;0.152;2023-09-08T02:43:06;4.80;;;4.30;;
10174;SDS011;18221;38.704;0.152;2023-09-08T02:45:34;4.63;;;4.20;;
10174;SDS011;18221;38.704;0.152;2023-09-08T02:48:04;5.07;;;4.20;;
10174;SDS011;18221;38.704;0.152;2023-09-08T02:50:32;5.87;;;4.40;;
10174;SDS011;18221;38.704;0.152;2023-09-08T02:53:00;4.93;;;4.03;;
10174;SDS011;18221;38.704;0.152;2023-09-08T02:55:29;5.00;;;4.60;;
10174;SDS011;18221;38.704;0.152;2023-09-08T02:57:57;5.03;;;4.17;;
10174;SDS011;18221;38.704;0.152;2023-09-08T03:00:26;5.47;;;4.70;;
10174;SDS011;18221;38.704;0.152;2023-09-08T03:02:54;5.93;;;4.40;;
10174;SDS011;18221;38.704;0.152;2023-09-08T03:05:24;6.40;;;4.53;;
10174;SDS011;18221;38.704;0.152;2023-09-08T03:07:52;5.43;;;4.47;;
10174;SDS011;18221;38.704;0.152;2023-09-08T03:10:20;5.73;;;4.77;;
10174;SDS011;18221;38.704;0.152;2023-09-08T03:12:50;7.13;;;4.80;;
10174;SDS011;18221;38.704;0.152;2023-09-08T03:15:18;6.50;;;4.13;;
10174;SDS011;18221;38.704;0.152;2023-09-08T03:17:47;4.70;;;4.20;;
10174;SDS011;18221;38.704;0.152;2023-09-08T03:20:15;7.07;;;5.03;;
10174;SDS011;18221;38.704;0.152;2023-09-08T03:22:45;4.83;;;4.33;;
10174;SDS011;18221;38.704;0.152;2023-09-08T03:25:13;4.63;;;4.03;;
10174;SDS011;18221;38.704;0.152;2023-09-08T03:27:41;4.83;;;4.40;;
10174;SDS011;18221;38.704;0.152;2023-09-08T03:30:10;5.27;;;4.60;;
10174;SDS011;18221;38.704;0.152;2023-09-08T03:32:39;4.53;;;4.13;;
10174;SDS011;18221;38.704;0.152;2023-09-08T03:35:07;5.00;;;4.17;;
10174;SDS011;18221;38.704;0.152;2023-09-08T03:37:36;5.80;;;4.60;;
10174;SDS011;18221;38.704;0.152;2023-09-08T03:40:06;4.63;;;4.20;;
10174;SDS011;18221;38.704;0.152;2023-09-08T03:42:35;5.37;;;4.30;;
10174;SDS011;18221;38.704;0.152;2023-09-08T03:45:04;5.40;;;4.50;;
10174;SDS011;18221;38.704;0.152;2023-09-08T03:47:33;5.50;;;4.57;;
10174;SDS011;18221;38.704;0.152;2023-09-08T03:50:01;5.27;;;4.60;;
10174;SDS011;18221;38.704;0.152;2023-09-08T03:52:31;4.80;;;4.30;;
10174;SDS011;18221;38.704;0.152;2023-09-08T03:54:59;5.00;;;4.50;;
10174;SDS011;18221;38.704;0.152;2023-09-08T03:57:29;4.53;;;4.07;;
10174;SDS011;18221;38.704;0.152;2023-09-08T03:59:57;5.17;;;4.50;;
10174;SDS011;18221;38.704;0.152;2023-09-08T04:02:25;5.77;;;4.60;;
10174;SDS011;18221;38.704;0.152;2023-09-08T04:04:53;6.77;;;5.03;;
10174;SDS011;18221;38.704;0.152;2023-09-08T04:07:21;4.83;;;4.23;;
10174;SDS011;18221;38.704;0.152;2023-09-08T04:09:49;5.03;;;4.37;;
10174;SDS011;18221;38.704;0.152;2023-09-08T04:12:17;5.00;;;4.60;;
10174;SDS011;18221;38.704;0.152;2023-09-08T04:14:47;6.27;;;4.80;;
10174;SDS011;18221;38.704;0.152;2023-09-08T04:17:15;6.27;;;4.50;;
10174;SDS011;18221;38.704;0.152;2023-09-08T04:19:43;5.13;;;4.63;;
10174;SDS011;18221;38.704;0.152;2023-09-08T04:22:11;5.67;;;4.33;;
10174;SDS011;18221;38.704;0.152;2023-09-08T04:24:39;7.20;;;5.00;;
10174;SDS011;18221;38.704;0.152;2023-09-08T04:27:07;5.53;;;4.30;;
10174;SDS011;18221;38.704;0.152;2023-09-08T04:29:36;5.13;;;4.23;;
10174;SDS011;18221;38.704;0.152;2023-09-08T04:32:05;5.00;;;4.50;;
10174;SDS011;18221;38.704;0.152;2023-09-08T04:34:36;5.20;;;4.17;;
10174;SDS011;18221;38.704;0.152;2023-09-08T04:37:05;5.23;;;4.43;;
10174;SDS011;18221;38.704;0.152;2023-09-08T04:39:33;4.90;;;4.07;;
10174;SDS011;18221;38.704;0.152;2023-09-08T04:42:03;7.27;;;4.47;;
10174;SDS011;18221;38.704;0.152;2023-09-08T04:44:32;5.63;;;4.10;;
10174;SDS011;18221;38.704;0.152;2023-09-08T04:47:00;4.83;;;4.07;;
10174;SDS011;18221;38.704;0.152;2023-09-08T04:49:30;4.97;;;4.20;;
10174;SDS011;18221;38.704;0.152;2023-09-08T04:51:58;5.20;;;4.60;;
10174;SDS011;18221;38.704;0.152;2023-09-08T04:54:26;6.53;;;4.27;;
10174;SDS011;18221;38.704;0.152;2023-09-08T04:56:55;6.30;;;4.20;;
10174;SDS011;18221;38.704;0.152;2023-09-08T04:59:23;5.27;;;3.97;;
10174;SDS011;18221;38.704;0.152;2023-09-08T05:01:51;4.47;;;4.07;;
10174;SDS011;18221;38.704;0.152;2023-09-08T05:04:19;6.13;;;4.53;;
10174;SDS011;18221;38.704;0.152;2023-09-08T05:06:49;6.13;;;4.33;;
10174;SDS011;18221;38.704;0.152;2023-09-08T05:09:17;4.37;;;3.97;;
10174;SDS011;18221;38.704;0.152;2023-09-08T05:11:45;5.77;;;3.80;;
10174;SDS011;18221;38.704;0.152;2023-09-08T05:14:13;4.53;;;4.10;;
10174;SDS011;18221;38.704;0.152;2023-09-08T05:16:41;4.83;;;4.30;;
10174;SDS011;18221;38.704;0.152;2023-09-08T05:19:12;4.50;;;4.00;;
10174;SDS011;18221;38.704;0.152;2023-09-08T05:21:41;5.23;;;4.00;;
10174;SDS011;18221;38.704;0.152;2023-09-08T05:24:11;4.40;;;3.97;;
10174;SDS011;18221;38.704;0.152;2023-09-08T05:26:40;7.07;;;4.53;;
10174;SDS011;18221;38.704;0.152;2023-09-08T05:29:09;4.87;;;3.87;;
10174;SDS011;18221;38.704;0.152;2023-09-08T05:31:37;4.73;;;4.10;;
10174;SDS011;18221;38.704;0.152;2023-09-08T05:34:05;5.00;;;4.50;;
10174;SDS011;18221;38.704;0.152;2023-09-08T05:36:33;7.27;;;4.60;;
10174;SDS011;18221;38.704;0.152;2023-09-08T05:39:03;6.57;;;4.30;;
10174;SDS011;18221;38.704;0.152;2023-09-08T05:41:35;4.17;;;3.77;;
10174;SDS011;18221;38.704;0.152;2023-09-08T05:44:04;5.20;;;4.10;;
10174;SDS011;18221;38.704;0.152;2023-09-08T05:46:32;5.67;;;3.97;;
10174;SDS011;18221;38.704;0.152;2023-09-08T05:49:00;4.47;;;3.93;;
10174;SDS011;18221;38.704;0.152;2023-09-08T05:51:29;4.47;;;4.07;;
10174;SDS011;18221;38.704;0.152;2023-09-08T05:53:58;5.93;;;4.23;;
10174;SDS011;18221;38.704;0.152;2023-09-08T05:56:29;4.80;;;4.30;;
10174;SDS011;18221;38.704;0.152;2023-09-08T05:58:59;4.70;;;4.20;;
10174;SDS011;18221;38.704;0.152;2023-09-08T06:01:27;5.03;;;4.33;;
10174;SDS011;18221;38.704;0.152;2023-09-08T06:03:58;5.90;;;4.63;;
10174;SDS011;18221;38.704;0.152;2023-09-08T06:06:26;4.80;;;4.40;;
10174;SDS011;18221;38.704;0.152;2023-09-08T06:08:54;5.67;;;4.40;;
10174;SDS011;18221;38.704;0.152;2023-09-08T06:11:22;5.17;;;4.50;;
10174;SDS011;18221;38.704;0.152;2023-09-08T06:13:51;5.10;;;4.20;;
10174;SDS011;18221;38.704;0.152;2023-09-08T06:16:25;5.67;;;4.23;;
10174;SDS011;18221;38.704;0.152;2023-09-08T06:18:53;6.27;;;4.90;;
10174;SDS011;18221;38.704;0.152;2023-09-08T06:21:23;5.73;;;4.27;;
10174;SDS011;18221;38.704;0.152;2023-09-08T06:23:51;5.30;;;4.20;;
10174;SDS011;18221;38.704;0.152;2023-09-08T06:26:19;6.60;;;4.40;;
10174;SDS011;18221;38.704;0.152;2023-09-08T06:28:47;7.93;;;4.57;;
10174;SDS011;18221;38.704;0.152;2023-09-08T06:31:15;5.53;;;4.47;;
10174;SDS011;18221;38.704;0.152;2023-09-08T06:33:45;6.63;;;4.20;;
10174;SDS011;18221;38.704;0.152;2023-09-08T06:36:15;6.30;;;4.30;;
10174;SDS011;18221;38.704;0.152;2023-09-08T06:38:43;6.57;;;4.10;;
10174;SDS011;18221;38.704;0.152;2023-09-08T06:41:11;7.33;;;4.37;;
10174;SDS011;18221;38.704;0.152;2023-09-08T06:43:39;7.67;;;4.90;;
10174;SDS011;18221;38.704;0.152;2023-09-08T06:46:07;6.40;;;3.90;;
10174;SDS011;18221;38.704;0.152;2023-09-08T06:48:35;5.93;;;4.53;;
10174;SDS011;18221;38.704;0.152;2023-09-08T06:51:06;5.80;;;4.27;;
10174;SDS011;18221;38.704;0.152;2023-09-08T06:53:35;7.90;;;4.17;;
10174;SDS011;18221;38.704;0.152;2023-09-08T06:56:03;10.27;;;5.00;;
10174;SDS011;18221;38.704;0.152;2023-09-08T06:58:31;5.57;;;3.93;;
10174;SDS011;18221;38.704;0.152;2023-09-08T07:00:59;6.40;;;4.37;;
10174;SDS011;18221;38.704;0.152;2023-09-08T07:03:28;5.87;;;3.67;;
10174;SDS011;18221;38.704;0.152;2023-09-08T07:06:02;5.00;;;4.10;;
10174;SDS011;18221;38.704;0.152;2023-09-08T07:08:31;6.80;;;3.60;;
10174;SDS011;18221;38.704;0.152;2023-09-08T07:10:59;5.77;;;4.10;;
10174;SDS011;18221;38.704;0.152;2023-09-08T07:13:27;6.70;;;4.50;;
10174;SDS011;18221;38.704;0.152;2023-09-08T07:15:55;8.10;;;3.73;;
10174;SDS011;18221;38.704;0.152;2023-09-08T07:18:23;7.13;;;3.90;;
10174;SDS011;18221;38.704;0.152;2023-09-08T07:20:52;5.53;;;3.40;;
10174;SDS011;18221;38.704;0.152;2023-09-08T07:23:20;5.90;;;3.40;;
10174;SDS011;18221;38.704;0.152;2023-09-08T07:25:49;6.60;;;3.67;;
10174;SDS011;18221;38.704;0.152;2023-09-08T07:28:17;4.77;;;3.33;;
10174;SDS011;18221;38.704;0.152;2023-09-08T07:30:45;7.40;;;3.50;;
10174;SDS011;18221;38.704;0.152;2023-09-08T07:33:13;8.30;;;3.73;;
10174;SDS011;18221;38.704;0.152;2023-09-08T07:35:42;5.38;;;3.33;;
10174;SDS011;18221;38.704;0.152;2023-09-08T07:38:10;4.75;;;3.50;;
10174;SDS011;18221;38.704;0.152;2023-09-08T07:40:38;7.40;;;4.23;;
10174;SDS011;18221;38.704;0.152;2023-09-08T07:43:10;4.97;;;3.33;;
10174;SDS011;18221;38.704;0.152;2023-09-08T07:45:38;5.03;;;3.10;;
10174;SDS011;18221;38.704;0.152;2023-09-08T07:48:06;5.07;;;3.07;;
10174;SDS011;18221;38.704;0.152;2023-09-08T07:50:35;5.03;;;3.27;;
10174;SDS011;18221;38.704;0.152;2023-09-08T07:53:05;5.03;;;3.30;;
10174;SDS011;18221;38.704;0.152;2023-09-08T07:55:34;6.83;;;3.40;;
10174;SDS011;18221;38.704;0.152;2023-09-08T07:58:02;5.27;;;3.47;;
10174;SDS011;18221;38.704;0.152;2023-09-08T08:00:32;4.20;;;3.53;;
10174;SDS011;18221;38.704;0.152;2023-09-08T08:03:00;5.37;;;3.60;;
10174;SDS011;18221;38.704;0.152;2023-09-08T08:05:28;3.97;;;3.00;;
10174;SDS011;18221;38.704;0.152;2023-09-08T08:07:56;4.37;;;3.00;;
10174;SDS011;18221;38.704;0.152;2023-09-08T08:10:24;5.80;;;3.67;;
10174;SDS011;18221;38.704;0.152;2023-09-08T08:12:52;5.07;;;3.03;;
10174;SDS011;18221;38.704;0.152;2023-09-08T08:15:21;3.85;;;2.85;;
10174;SDS011;18221;38.704;0.152;2023-09-08T08:17:51;4.20;;;3.38;;
10174;SDS011;18221;38.704;0.152;2023-09-08T08:20:19;6.03;;;3.47;;
10174;SDS011;18221;38.704;0.152;2023-09-08T08:22:47;4.77;;;3.40;;
10174;SDS011;18221;38.704;0.152;2023-09-08T08:25:15;3.90;;;3.23;;
10174;SDS011;18221;38.704;0.152;2023-09-08T08:27:43;6.05;;;3.33;;
10174;SDS011;18221;38.704;0.152;2023-09-08T08:30:12;3.67;;;3.37;;
10174;SDS011;18221;38.704;0.152;2023-09-08T08:32:40;4.57;;;3.20;;
10174;SDS011;18221;38.704;0.152;2023-09-08T08:35:09;4.28;;;3.60;;
10174;SDS011;18221;38.704;0.152;2023-09-08T08:37:39;6.13;;;3.50;;
10174;SDS011;18221;38.704;0.152;2023-09-08T08:40:09;4.60;;;3.10;;
10174;SDS011;18221;38.704;0.152;2023-09-08T08:42:38;4.47;;;3.13;;
10174;SDS011;18221;38.704;0.152;2023-09-08T08:45:08;4.50;;;3.37;;
10174;SDS011;18221;38.704;0.152;2023-09-08T08:47:37;4.25;;;3.13;;
10174;SDS011;18221;38.704;0.152;2023-09-08T08:50:06;4.50;;;3.25;;
10174;SDS011;18221;38.704;0.152;2023-09-08T08:52:37;5.72;;;3.03;;
10174;SDS011;18221;38.704;0.152;2023-09-08T08:55:06;3.27;;;2.97;;
10174;SDS011;18221;38.704;0.152;2023-09-08T08:57:36;4.13;;;3.00;;
10174;SDS011;18221;38.704;0.152;2023-09-08T09:00:07;3.23;;;2.93;;
10174;SDS011;18221;38.704;0.152;2023-09-08T09:02:38;6.05;;;3.15;;
10174;SDS011;18221;38.704;0.152;2023-09-08T09:05:12;4.15;;;3.13;;
10174;SDS011;18221;38.704;0.152;2023-09-08T09:07:41;3.88;;;2.97;;
10174;SDS011;18221;38.704;0.152;2023-09-08T09:10:10;3.40;;;2.80;;
10174;SDS011;18221;38.704;0.152;2023-09-08T09:12:41;4.88;;;2.92;;
10174;SDS011;18221;38.704;0.152;2023-09-08T09:15:10;6.88;;;3.25;;
10174;SDS011;18221;38.704;0.152;2023-09-08T09:17:39;3.97;;;2.90;;
10174;SDS011;18221;38.704;0.152;2023-09-08T09:20:15;4.85;;;2.80;;
10174;SDS011;18221;38.704;0.152;2023-09-08T09:22:46;4.78;;;2.88;;
10174;SDS011;18221;38.704;0.152;2023-09-08T09:25:21;3.83;;;2.97;;
10174;SDS011;18221;38.704;0.152;2023-09-08T09:27:51;3.97;;;3.15;;
10174;SDS011;18221;38.704;0.152;2023-09-08T09:30:21;4.40;;;3.00;;
10174;SDS011;18221;38.704;0.152;2023-09-08T09:32:58;4.70;;;2.70;;
10174;SDS011;18221;38.704;0.152;2023-09-08T09:35:43;4.45;;;2.78;;
10174;SDS011;18221;38.704;0.152;2023-09-08T09:38:13;6.07;;;3.03;;
10174;SDS011;18221;38.704;0.152;2023-09-08T09:40:42;4.70;;;3.00;;
10174;SDS011;18221;38.704;0.152;2023-09-08T09:43:10;3.80;;;2.88;;
10174;SDS011;18221;38.704;0.152;2023-09-08T09:45:40;4.68;;;3.00;;
10174;SDS011;18221;38.704;0.152;2023-09-08T09:48:10;4.68;;;3.00;;
10174;SDS011;18221;38.704;0.152;2023-09-08T09:50:50;4.05;;;3.10;;
10174;SDS011;18221;38.704;0.152;2023-09-08T09:53:19;3.08;;;2.80;;
10174;SDS011;18221;38.704;0.152;2023-09-08T09:55:49;4.93;;;3.10;;
10174;SDS011;18221;38.704;0.152;2023-09-08T09:58:18;3.45;;;2.97;;
10174;SDS011;18221;38.704;0.152;2023-09-08T10:00:48;4.68;;;3.20;;
10174;SDS011;18221;38.704;0.152;2023-09-08T10:03:19;5.32;;;3.00;;
10174;SDS011;18221;38.704;0.152;2023-09-08T10:05:51;6.63;;;3.08;;
10174;SDS011;18221;38.704;0.152;2023-09-08T10:08:21;4.45;;;3.03;;
10174;SDS011;18221;38.704;0.152;2023-09-08T10:10:49;4.80;;;2.95;;
10174;SDS011;18221;38.704;0.152;2023-09-08T10:13:21;5.75;;;3.08;;
10174;SDS011;18221;38.704;0.152;2023-09-08T10:15:55;4.85;;;3.22;;
10174;SDS011;18221;38.704;0.152;2023-09-08T10:18:28;4.82;;;2.78;;
10174;SDS011;18221;38.704;0.152;2023-09-08T10:21:02;3.90;;;2.80;;
10174;SDS011;18221;38.704;0.152;2023-09-08T10:23:34;4.55;;;2.85;;
10174;SDS011;18221;38.704;0.152;2023-09-08T10:26:09;3.58;;;2.67;;
10174;SDS011;18221;38.704;0.152;2023-09-08T10:28:38;5.03;;;3.03;;
10174;SDS011;18221;38.704;0.152;2023-09-08T10:31:06;4.78;;;2.85;;
10174;SDS011;18221;38.704;0.152;2023-09-08T10:33:36;4.13;;;2.90;;
10174;SDS011;18221;38.704;0.152;2023-09-08T10:36:07;5.35;;;2.90;;
10174;SDS011;18221;38.704;0.152;2023-09-08T10:38:38;4.07;;;2.95;;
10174;SDS011;18221;38.704;0.152;2023-09-08T10:43:58;3.47;;;2.50;;
10174;SDS011;18221;38.704;0.152;2023-09-08T10:46:31;2.92;;;2.42;;
10174;SDS011;18221;38.704;0.152;2023-09-08T10:49:00;3.80;;;2.67;;
10174;SDS011;18221;38.704;0.152;2023-09-08T10:51:34;4.78;;;3.20;;
10174;SDS011;18221;38.704;0.152;2023-09-08T10:54:03;3.75;;;2.85;;
10174;SDS011;18221;38.704;0.152;2023-09-08T10:56:47;4.22;;;2.65;;
10174;SDS011;18221;38.704;0.152;2023-09-08T10:59:21;4.75;;;2.67;;
10174;SDS011;18221;38.704;0.152;2023-09-08T11:01:55;3.67;;;2.85;;
10174;SDS011;18221;38.704;0.152;2023-09-08T11:04:23;3.45;;;2.50;;
10174;SDS011;18221;38.704;0.152;2023-09-08T11:06:57;3.85;;;2.67;;
10174;SDS011;18221;38.704;0.152;2023-09-08T11:09:25;6.15;;;2.72;;
10174;SDS011;18221;38.704;0.152;2023-09-08T11:11:53;4.13;;;2.60;;
10174;SDS011;18221;38.704;0.152;2023-09-08T11:14:22;3.63;;;2.90;;
10174;SDS011;18221;38.704;0.152;2023-09-08T11:16:53;4.45;;;2.63;;
10174;SDS011;18221;38.704;0.152;2023-09-08T11:19:24;4.88;;;2.70;;
10174;SDS011;18221;38.704;0.152;2023-09-08T11:22:11;4.53;;;2.72;;
10174;SDS011;18221;38.704;0.152;2023-09-08T11:24:41;4.43;;;2.75;;
10174;SDS011;18221;38.704;0.152;2023-09-08T11:27:09;4.38;;;2.60;;
10174;SDS011;18221;38.704;0.152;2023-09-08T11:29:39;3.83;;;2.60;;
10174;SDS011;18221;38.704;0.152;2023-09-08T11:32:08;4.13;;;2.55;;
10174;SDS011;18221;38.704;0.152;2023-09-08T11:34:37;4.95;;;2.60;;
10174;SDS011;18221;38.704;0.152;2023-09-08T11:37:07;3.55;;;2.83;;
10174;SDS011;18221;38.704;0.152;2023-09-08T11:39:40;3.50;;;2.88;;
10174;SDS011;18221;38.704;0.152;2023-09-08T11:42:12;3.60;;;2.67;;
10174;SDS011;18221;38.704;0.152;2023-09-08T11:44:41;2.97;;;2.63;;
10174;SDS011;18221;38.704;0.152;2023-09-08T11:47:10;2.97;;;2.65;;
10174;SDS011;18221;38.704;0.152;2023-09-08T11:49:41;3.90;;;3.10;;
10174;SDS011;18221;38.704;0.152;2023-09-08T11:52:11;3.45;;;2.72;;
10174;SDS011;18221;38.704;0.152;2023-09-08T11:54:41;3.40;;;2.45;;
10174;SDS011;18221;38.704;0.152;2023-09-08T11:57:09;3.33;;;2.60;;
10174;SDS011;18221;38.704;0.152;2023-09-08T11:59:38;3.97;;;2.50;;
10174;SDS011;18221;38.704;0.152;2023-09-08T12:02:07;2.90;;;2.60;;
10174;SDS011;18221;38.704;0.152;2023-09-08T12:04:36;4.45;;;2.63;;
10174;SDS011;18221;38.704;0.152;2023-09-08T12:07:04;4.32;;;2.65;;
10174;SDS011;18221;38.704;0.152;2023-09-08T12:09:34;4.20;;;2.75;;
10174;SDS011;18221;38.704;0.152;2023-09-08T12:12:04;5.25;;;2.53;;
10174;SDS011;18221;38.704;0.152;2023-09-08T12:14:42;3.38;;;2.47;;
10174;SDS011;18221;38.704;0.152;2023-09-08T12:17:10;3.08;;;2.50;;
10174;SDS011;18221;38.704;0.152;2023-09-08T12:19:42;4.72;;;2.63;;
10174;SDS011;18221;38.704;0.152;2023-09-08T12:22:11;6.10;;;2.65;;
10174;SDS011;18221;38.704;0.152;2023-09-08T12:24:46;3.75;;;2.60;;
10174;SDS011;18221;38.704;0.152;2023-09-08T12:27:18;7.10;;;2.70;;
10174;SDS011;18221;38.704;0.152;2023-09-08T12:29:56;2.55;;;2.30;;
10174;SDS011;18221;38.704;0.152;2023-09-08T12:32:28;3.40;;;2.25;;
10174;SDS011;18221;38.704;0.152;2023-09-08T12:34:59;3.80;;;2.65;;
10174;SDS011;18221;38.704;0.152;2023-09-08T12:37:32;3.65;;;2.60;;
10174;SDS011;18221;38.704;0.152;2023-09-08T12:40:01;2.50;;;2.30;;
10174;SDS011;18221;38.704;0.152;2023-09-08T12:42:31;2.67;;;2.47;;
10174;SDS011;18221;38.704;0.152;2023-09-08T12:44:59;3.28;;;2.50;;
10174;SDS011;18221;38.704;0.152;2023-09-08T12:47:27;3.50;;;2.53;;
10174;SDS011;18221;38.704;0.152;2023-09-08T12:49:55;4.18;;;2.80;;
10174;SDS011;18221;38.704;0.152;2023-09-08T12:52:23;2.83;;;2.40;;
10174;SDS011;18221;38.704;0.152;2023-09-08T12:54:51;3.22;;;2.47;;
10174;SDS011;18221;38.704;0.152;2023-09-08T12:57:19;3.08;;;2.33;;
10174;SDS011;18221;38.704;0.152;2023-09-08T12:59:49;4.03;;;2.33;;
10174;SDS011;18221;38.704;0.152;2023-09-08T13:02:17;4.25;;;2.80;;
10174;SDS011;18221;38.704;0.152;2023-09-08T13:04:46;4.75;;;2.75;;
10174;SDS011;18221;38.704;0.152;2023-09-08T13:07:15;3.15;;;2.50;;
10174;SDS011;18221;38.704;0.152;2023-09-08T13:09:43;3.10;;;2.58;;
10174;SDS011;18221;38.704;0.152;2023-09-08T13:12:11;2.70;;;2.50;;
10174;SDS011;18221;38.704;0.152;2023-09-08T13:14:40;4.05;;;2.60;;
10174;SDS011;18221;38.704;0.152;2023-09-08T13:17:10;3.13;;;2.60;;
10174;SDS011;18221;38.704;0.152;2023-09-08T13:19:40;4.22;;;2.60;;
10174;SDS011;18221;38.704;0.152;2023-09-08T13:22:08;3.70;;;2.50;;
10174;SDS011;18221;38.704;0.152;2023-09-08T13:24:37;3.25;;;2.42;;
10174;SDS011;18221;38.704;0.152;2023-09-08T13:27:05;3.13;;;2.50;;
10174;SDS011;18221;38.704;0.152;2023-09-08T13:29:33;2.75;;;2.33;;
10174;SDS011;18221;38.704;0.152;2023-09-08T13:32:03;5.28;;;2.40;;
10174;SDS011;18221;38.704;0.152;2023-09-08T13:34:33;3.15;;;2.47;;
10174;SDS011;18221;38.704;0.152;2023-09-08T13:37:03;4.13;;;2.40;;
10174;SDS011;18221;38.704;0.152;2023-09-08T13:39:32;3.35;;;2.50;;
10174;SDS011;18221;38.704;0.152;2023-09-08T13:42:00;3.05;;;2.35;;
10174;SDS011;18221;38.704;0.152;2023-09-08T13:44:29;5.25;;;2.28;;
10174;SDS011;18221;38.704;0.152;2023-09-08T13:46:57;3.53;;;2.60;;
10174;SDS011;18221;38.704;0.152;2023-09-08T13:49:26;3.33;;;2.40;;
10174;SDS011;18221;38.704;0.152;2023-09-08T13:51:56;3.60;;;2.47;;
10174;SDS011;18221;38.704;0.152;2023-09-08T13:54:24;2.80;;;2.60;;
10174;SDS011;18221;38.704;0.152;2023-09-08T13:56:57;2.92;;;2.50;;
10174;SDS011;18221;38.704;0.152;2023-09-08T13:59:26;3.78;;;2.65;;
10174;SDS011;18221;38.704;0.152;2023-09-08T14:01:56;3.95;;;2.75;;
10174;SDS011;18221;38.704;0.152;2023-09-08T14:04:26;4.25;;;2.50;;
10174;SDS011;18221;38.704;0.152;2023-09-08T14:06:56;6.03;;;2.55;;
10174;SDS011;18221;38.704;0.152;2023-09-08T14:09:24;3.25;;;2.38;;
10174;SDS011;18221;38.704;0.152;2023-09-08T14:11:52;5.70;;;2.55;;
10174;SDS011;18221;38.704;0.152;2023-09-08T14:14:20;4.97;;;2.67;;
10174;SDS011;18221;38.704;0.152;2023-09-08T14:16:49;4.50;;;2.50;;
10174;SDS011;18221;38.704;0.152;2023-09-08T14:19:17;4.30;;;2.63;;
10174;SDS011;18221;38.704;0.152;2023-09-08T14:21:46;3.67;;;2.55;;
10174;SDS011;18221;38.704;0.152;2023-09-08T14:24:15;4.63;;;2.50;;
10174;SDS011;18221;38.704;0.152;2023-09-08T14:26:43;2.85;;;2.50;;
10174;SDS011;18221;38.704;0.152;2023-09-08T14:29:12;5.20;;;2.80;;
10174;SDS011;18221;38.704;0.152;2023-09-08T14:31:40;3.60;;;2.30;;
10174;SDS011;18221;38.704;0.152;2023-09-08T14:34:08;4.40;;;2.40;;
10174;SDS011;18221;38.704;0.152;2023-09-08T14:36:36;3.28;;;2.50;;
10174;SDS011;18221;38.704;0.152;2023-09-08T14:39:05;2.72;;;2.20;;
10174;SDS011;18221;38.704;0.152;2023-09-08T14:41:35;4.57;;;2.50;;
10174;SDS011;18221;38.704;0.152;2023-09-08T14:44:03;3.53;;;2.20;;
10174;SDS011;18221;38.704;0.152;2023-09-08T14:46:31;3.03;;;2.53;;
10174;SDS011;18221;38.704;0.152;2023-09-08T14:48:59;3.85;;;2.58;;
10174;SDS011;18221;38.704;0.152;2023-09-08T14:51:27;3.13;;;2.80;;
10174;SDS011;18221;38.704;0.152;2023-09-08T14:53:56;4.90;;;2.50;;
10174;SDS011;18221;38.704;0.152;2023-09-08T14:56:24;2.58;;;2.25;;
10174;SDS011;18221;38.704;0.152;2023-09-08T14:58:53;3.13;;;2.47;;
10174;SDS011;18221;38.704;0.152;2023-09-08T15:01:21;3.22;;;2.55;;
10174;SDS011;18221;38.704;0.152;2023-09-08T15:03:50;3.67;;;2.58;;
10174;SDS011;18221;38.704;0.152;2023-09-08T15:06:20;2.80;;;2.60;;
10174;SDS011;18221;38.704;0.152;2023-09-08T15:08:48;3.03;;;2.67;;
10174;SDS011;18221;38.704;0.152;2023-09-08T15:11:16;2.90;;;2.40;;
10174;SDS011;18221;38.704;0.152;2023-09-08T15:13:44;4.20;;;2.58;;
10174;SDS011;18221;38.704;0.152;2023-09-08T15:16:14;3.10;;;2.40;;
10174;SDS011;18221;38.704;0.152;2023-09-08T15:18:42;3.05;;;2.45;;